Time;durP1;ratioP1;P1;durP2;ratioP2;P2;SDS_P1;SDS_P2;PMS_P1;PMS_P2;Temp;Humidity;BMP_temperature;BMP_pressure;BME280_temperature;BME280_humidity;BME280_pressure;Samples;Min_cycle;Max_cycle;Signal;HPM_P1;HPM_P2
2024/03/16 00:02:08;;;;;;;28.83;18.65;;;;;;;;;;5075266;28;20043;-59
2024/03/16 00:04:34;;;;;;;30.10;17.70;;;;;;;;;;5093579;28;20028;-59
2024/03/16 00:07:00;;;;;;;31.40;18.15;;;;;;;;;;5094107;28;20013;-59
2024/03/16 00:09:25;;;;;;;28.20;17.65;;;;;;;;;;5093760;28;20112;-59
2024/03/16 00:11:51;;;;;;;28.40;17.70;;;;;;;;;;5094117;28;20111;-59
2024/03/16 00:14:16;;;;;;;28.88;17.95;;;;;;;;;;5076037;28;20024;-59
2024/03/16 00:16:42;;;;;;;28.35;18.00;;;;;;;;;;5093456;28;20032;-59
2024/03/16 00:19:07;;;;;;;29.60;17.77;;;;;;;;;;5093653;28;20024;-59
2024/03/16 00:21:33;;;;;;;26.70;17.05;;;;;;;;;;5075325;28;20116;-59
2024/03/16 00:23:58;;;;;;;28.17;17.63;;;;;;;;;;5093394;28;20020;-59
2024/03/16 00:26:24;;;;;;;25.10;15.98;;;;;;;;;;5075304;28;20032;-59
2024/03/16 00:28:50;;;;;;;25.25;15.90;;;;;;;;;;5093933;28;20111;-59
2024/03/16 00:31:18;;;;;;;21.90;15.23;;;;;;;;;;5075256;28;20470;-59
2024/03/16 00:33:43;;;;;;;23.50;16.02;;;;;;;;;;5093608;28;20424;-59
2024/03/16 00:36:08;;;;;;;24.83;15.57;;;;;;;;;;5093595;28;20036;-59
2024/03/16 00:38:36;;;;;;;22.55;14.88;;;;;;;;;;5093494;28;20024;-59
2024/03/16 00:41:02;;;;;;;24.67;15.13;;;;;;;;;;5058482;28;20478;-59
2024/03/16 00:43:28;;;;;;;23.58;14.65;;;;;;;;;;5093249;28;20186;-59
2024/03/16 00:45:53;;;;;;;21.20;14.50;;;;;;;;;;5093213;28;20143;-59
2024/03/16 00:48:18;;;;;;;23.13;14.65;;;;;;;;;;5093164;28;20032;-59
2024/03/16 00:50:44;;;;;;;21.90;14.82;;;;;;;;;;5091938;28;20020;-64
2024/03/16 00:53:12;;;;;;;23.27;14.00;;;;;;;;;;5093157;28;20401;-64
2024/03/16 00:55:37;;;;;;;23.52;14.27;;;;;;;;;;5093686;28;20032;-64
2024/03/16 00:58:03;;;;;;;22.17;14.93;;;;;;;;;;5093532;28;20047;-64
2024/03/16 01:00:30;;;;;;;21.80;14.57;;;;;;;;;;5093161;28;20065;-64
2024/03/16 01:02:56;;;;;;;21.23;13.95;;;;;;;;;;5096952;28;20463;-59
2024/03/16 01:05:22;;;;;;;21.85;14.43;;;;;;;;;;5097227;28;20024;-59
2024/03/16 01:07:47;;;;;;;25.00;15.00;;;;;;;;;;5097110;28;20036;-59
2024/03/16 01:10:12;;;;;;;21.70;14.20;;;;;;;;;;5078501;28;20101;-59
2024/03/16 01:12:38;;;;;;;19.83;12.82;;;;;;;;;;5096767;28;20454;-59
2024/03/16 01:15:03;;;;;;;22.20;13.90;;;;;;;;;;5096421;28;20038;-59
2024/03/16 01:17:29;;;;;;;19.98;14.32;;;;;;;;;;5078223;28;20546;-59
2024/03/16 01:19:55;;;;;;;21.25;14.20;;;;;;;;;;5096636;28;20113;-59
2024/03/16 01:22:21;;;;;;;20.00;13.20;;;;;;;;;;5096847;28;20052;-59
2024/03/16 01:24:47;;;;;;;21.73;13.85;;;;;;;;;;5078193;28;20047;-59
2024/03/16 01:27:12;;;;;;;21.13;13.65;;;;;;;;;;5078476;28;20426;-59
2024/03/16 01:29:38;;;;;;;21.55;13.82;;;;;;;;;;5096190;28;20463;-59
2024/03/16 01:32:08;;;;;;;23.38;14.23;;;;;;;;;;5096141;28;20031;-59
2024/03/16 01:34:33;;;;;;;26.77;15.40;;;;;;;;;;5096376;28;20118;-59
2024/03/16 01:36:58;;;;;;;24.88;15.40;;;;;;;;;;5096272;28;20051;-59
2024/03/16 01:39:24;;;;;;;25.70;16.17;;;;;;;;;;5096027;28;20454;-59
2024/03/16 01:41:49;;;;;;;27.58;17.40;;;;;;;;;;5095945;28;20020;-58
2024/03/16 01:44:14;;;;;;;26.27;17.20;;;;;;;;;;5095912;28;20103;-59
2024/03/16 01:46:41;;;;;;;25.75;16.70;;;;;;;;;;5077761;28;20466;-59
2024/03/16 01:49:07;;;;;;;28.35;17.02;;;;;;;;;;5096361;28;20028;-59
2024/03/16 01:51:37;;;;;;;26.60;16.58;;;;;;;;;;5096054;28;20020;-59
2024/03/16 01:54:02;;;;;;;27.30;17.17;;;;;;;;;;5095702;28;20391;-58
2024/03/16 01:56:27;;;;;;;29.08;18.05;;;;;;;;;;5095702;28;20107;-59
2024/03/16 01:58:53;;;;;;;27.13;17.40;;;;;;;;;;5095537;28;20450;-59
2024/03/16 02:01:18;;;;;;;27.75;18.05;;;;;;;;;;5095397;28;20371;-59
2024/03/16 02:03:46;;;;;;;28.17;17.73;;;;;;;;;;5095519;28;20028;-58
2024/03/16 02:06:11;;;;;;;32.45;18.42;;;;;;;;;;5096052;28;20016;-59
2024/03/16 02:08:37;;;;;;;29.17;17.80;;;;;;;;;;5077669;28;20436;-59
2024/03/16 02:11:10;;;;;;;28.23;17.30;;;;;;;;;;5095352;28;20062;-59
2024/03/16 02:13:35;;;;;;;30.45;17.55;;;;;;;;;;5095486;28;20115;-59
2024/03/16 02:16:02;;;;;;;25.35;15.90;;;;;;;;;;5077095;28;20126;-59
2024/03/16 02:18:36;;;;;;;25.38;16.20;;;;;;;;;;5095461;28;20103;-58
2024/03/16 02:21:04;;;;;;;26.55;16.45;;;;;;;;;;5095778;28;20130;-58
2024/03/16 02:23:31;;;;;;;27.88;17.42;;;;;;;;;;5095460;28;20012;-59
2024/03/16 02:25:58;;;;;;;26.55;16.60;;;;;;;;;;5095071;28;20024;-59
2024/03/16 02:28:23;;;;;;;26.45;16.90;;;;;;;;;;5095299;28;20111;-59
2024/03/16 02:30:49;;;;;;;23.98;15.60;;;;;;;;;;5095576;28;20067;-58
2024/03/16 02:33:22;;;;;;;24.83;14.38;;;;;;;;;;5109398;22;20056;-64
2024/03/16 02:36:05;;;;;;;21.80;14.35;;;;;;;;;;5069934;22;20080;-63
2024/03/16 02:38:31;;;;;;;25.38;15.10;;;;;;;;;;5091722;22;20065;-59
2024/03/16 02:40:56;;;;;;;24.38;14.63;;;;;;;;;;5094200;22;20410;-63
2024/03/16 02:43:39;;;;;;;21.90;14.82;;;;;;;;;;5100783;22;20056;-58
2024/03/16 02:46:05;;;;;;;24.15;15.40;;;;;;;;;;5033128;28;20051;-64
2024/03/16 02:48:30;;;;;;;26.30;15.32;;;;;;;;;;5034784;28;20478;-64
2024/03/16 02:50:55;;;;;;;24.25;14.85;;;;;;;;;;5034534;28;20014;-64
2024/03/16 02:53:21;;;;;;;22.52;14.60;;;;;;;;;;5054509;22;20048;-59
2024/03/16 02:55:46;;;;;;;24.77;14.63;;;;;;;;;;5074211;28;20036;-59
2024/03/16 02:58:13;;;;;;;24.85;15.63;;;;;;;;;;5074160;28;20089;-59
2024/03/16 03:00:39;;;;;;;23.25;15.52;;;;;;;;;;5074399;28;20036;-59
2024/03/16 03:03:06;;;;;;;24.55;15.27;;;;;;;;;;5074720;28;20032;-59
2024/03/16 03:05:32;;;;;;;25.42;15.90;;;;;;;;;;5074102;28;20103;-59
2024/03/16 03:07:57;;;;;;;27.50;16.70;;;;;;;;;;5072808;28;20159;-59
2024/03/16 03:10:23;;;;;;;28.50;16.13;;;;;;;;;;5072769;28;20056;-58
2024/03/16 03:12:52;;;;;;;24.30;15.73;;;;;;;;;;5079655;22;20029;31
2024/03/16 03:15:18;;;;;;;22.83;14.95;;;;;;;;;;4955157;28;20070;-64
2024/03/16 03:17:43;;;;;;;26.73;16.00;;;;;;;;;;4956185;28;20031;-64
2024/03/16 03:20:09;;;;;;;27.02;16.10;;;;;;;;;;4956494;28;20023;-64
2024/03/16 03:22:35;;;;;;;24.30;15.02;;;;;;;;;;4956223;28;20489;-64
2024/03/16 03:25:01;;;;;;;21.55;14.25;;;;;;;;;;4970263;28;20118;-64
2024/03/16 03:27:26;;;;;;;27.20;14.90;;;;;;;;;;4955895;28;20019;-64
2024/03/16 03:29:51;;;;;;;23.63;14.75;;;;;;;;;;4955832;28;20035;-64
2024/03/16 03:32:17;;;;;;;26.48;15.18;;;;;;;;;;4956014;29;20110;-65
2024/03/16 03:34:43;;;;;;;25.05;15.43;;;;;;;;;;4956035;28;20031;-64
2024/03/16 03:37:08;;;;;;;26.02;15.13;;;;;;;;;;4955650;28;20046;-64
2024/03/16 03:39:34;;;;;;;24.30;14.98;;;;;;;;;;4954362;29;20087;-64
2024/03/16 03:42:00;;;;;;;23.35;15.35;;;;;;;;;;4954810;29;20470;-64
2024/03/16 03:44:35;;;;;;;25.10;15.60;;;;;;;;;;4955927;28;20031;-64
2024/03/16 03:47:02;;;;;;;22.27;14.95;;;;;;;;;;4955847;29;20383;-64
2024/03/16 03:49:35;;;;;;;24.38;14.88;;;;;;;;;;4954382;29;20023;-64
2024/03/16 03:52:02;;;;;;;23.13;15.20;;;;;;;;;;4955810;28;20086;-64
2024/03/16 03:54:27;;;;;;;23.67;15.20;;;;;;;;;;4954347;29;20078;-64
2024/03/16 03:56:53;;;;;;;23.88;15.27;;;;;;;;;;4955512;29;20055;-64
2024/03/16 03:59:21;;;;;;;23.73;15.38;;;;;;;;;;4955424;28;20106;-64
2024/03/16 04:01:47;;;;;;;23.10;14.93;;;;;;;;;;4955792;28;20385;-64
2024/03/16 04:04:12;;;;;;;21.80;14.75;;;;;;;;;;4955486;28;20027;-64
2024/03/16 04:06:38;;;;;;;23.65;15.57;;;;;;;;;;4955472;28;20020;-64
2024/03/16 04:09:03;;;;;;;22.73;14.63;;;;;;;;;;4955714;28;20043;-64
2024/03/16 04:11:28;;;;;;;24.50;14.60;;;;;;;;;;4955402;29;20592;-64
2024/03/16 04:13:54;;;;;;;21.60;14.63;;;;;;;;;;4972036;28;20049;-64
2024/03/16 04:16:19;;;;;;;24.65;14.50;;;;;;;;;;4994346;28;20042;-64
2024/03/16 04:18:45;;;;;;;24.00;13.95;;;;;;;;;;4994197;28;20109;-64
2024/03/16 04:21:10;;;;;;;24.38;15.50;;;;;;;;;;4994284;28;20031;-64
2024/03/16 04:23:36;;;;;;;25.05;14.73;;;;;;;;;;4976972;28;20376;-64
2024/03/16 04:26:01;;;;;;;24.65;15.35;;;;;;;;;;4994225;28;20022;-64
2024/03/16 04:28:26;;;;;;;24.45;16.05;;;;;;;;;;4993964;28;20033;-64
2024/03/16 04:30:52;;;;;;;23.83;14.80;;;;;;;;;;4993931;28;20026;-64
2024/03/16 04:33:17;;;;;;;24.92;15.30;;;;;;;;;;4994180;28;20042;-64
2024/03/16 04:35:45;;;;;;;27.85;16.33;;;;;;;;;;4977099;28;20061;-64
2024/03/16 04:38:12;;;;;;;26.38;16.80;;;;;;;;;;4997480;28;20389;-64
2024/03/16 04:40:38;;;;;;;30.30;16.42;;;;;;;;;;4997799;28;20034;-64
2024/03/16 04:43:03;;;;;;;27.55;16.15;;;;;;;;;;4997749;28;20034;-64
2024/03/16 04:45:29;;;;;;;29.08;16.23;;;;;;;;;;4997439;28;20030;-64
2024/03/16 04:47:54;;;;;;;28.70;15.30;;;;;;;;;;4979987;28;20053;-64
2024/03/16 04:50:19;;;;;;;27.90;16.08;;;;;;;;;;4997635;28;20026;-64
2024/03/16 04:52:45;;;;;;;27.20;15.82;;;;;;;;;;4997570;28;20062;-64
2024/03/16 04:55:10;;;;;;;26.95;15.05;;;;;;;;;;5035278;23;20406;-59
2024/03/16 04:57:36;;;;;;;25.00;15.50;;;;;;;;;;5096986;28;20039;-64
2024/03/16 05:00:01;;;;;;;20.40;13.93;;;;;;;;;;5096812;28;20443;-64
2024/03/16 05:02:27;;;;;;;21.15;14.18;;;;;;;;;;5096721;28;20020;-64
2024/03/16 05:04:52;;;;;;;23.55;14.32;;;;;;;;;;5096909;28;20520;-64
2024/03/16 05:07:19;;;;;;;21.35;13.73;;;;;;;;;;5097181;28;20504;-64
2024/03/16 05:09:44;;;;;;;22.50;14.07;;;;;;;;;;5096566;28;20054;-64
2024/03/16 05:12:09;;;;;;;21.95;13.52;;;;;;;;;;5096580;28;20369;-64
2024/03/16 05:14:35;;;;;;;44.08;15.25;;;;;;;;;;5078378;28;20062;-65
2024/03/16 05:17:00;;;;;;;35.40;14.23;;;;;;;;;;5096438;28;20481;-65
2024/03/16 05:19:26;;;;;;;21.92;13.88;;;;;;;;;;5078648;28;20036;-64
2024/03/16 05:22:02;;;;;;;20.00;12.55;;;;;;;;;;5103264;22;20092;-64
2024/03/16 05:24:30;;;;;;;23.67;13.18;;;;;;;;;;5063222;22;20063;-59
2024/03/16 05:26:55;;;;;;;28.85;14.82;;;;;;;;;;5076267;28;20067;-59
2024/03/16 05:29:21;;;;;;;26.42;16.27;;;;;;;;;;5075943;28;20033;-59
2024/03/16 05:31:55;;;;;;;30.55;14.98;;;;;;;;;;5057966;28;20382;-59
2024/03/16 05:34:21;;;;;;;25.75;17.30;;;;;;;;;;5076145;28;20504;-59
2024/03/16 05:36:46;;;;;;;26.20;15.88;;;;;;;;;;5075790;28;20107;-59
2024/03/16 05:39:14;;;;;;;21.50;14.25;;;;;;;;;;5075733;28;20462;-59
2024/03/16 05:41:40;;;;;;;22.48;13.38;;;;;;;;;;5075978;28;20033;-59
2024/03/16 05:44:05;;;;;;;23.75;14.45;;;;;;;;;;5075696;28;20116;-59
2024/03/16 05:46:32;;;;;;;25.30;16.33;;;;;;;;;;5075203;28;20039;-59
2024/03/16 05:48:57;;;;;;;31.50;20.95;;;;;;;;;;5076122;28;20104;-59
2024/03/16 05:51:22;;;;;;;37.80;25.00;;;;;;;;;;5075813;28;20422;-59
2024/03/16 05:53:48;;;;;;;36.90;24.02;;;;;;;;;;5075750;28;20036;-59
2024/03/16 05:56:13;;;;;;;31.63;21.23;;;;;;;;;;5075713;28;20040;-59
2024/03/16 05:58:39;;;;;;;33.78;22.63;;;;;;;;;;5057966;28;20040;-59
2024/03/16 06:01:04;;;;;;;38.17;26.02;;;;;;;;;;5057817;28;20116;-59
2024/03/16 06:03:31;;;;;;;40.17;25.88;;;;;;;;;;5075286;28;20027;-59
2024/03/16 06:05:56;;;;;;;50.30;28.02;;;;;;;;;;5075547;28;20476;-59
2024/03/16 06:08:22;;;;;;;39.28;25.13;;;;;;;;;;5075203;28;20059;-59
2024/03/16 06:10:47;;;;;;;36.38;21.90;;;;;;;;;;5075169;28;20024;-59
2024/03/16 06:13:13;;;;;;;28.90;17.73;;;;;;;;;;5075355;28;20028;-59
2024/03/16 06:15:39;;;;;;;28.08;17.67;;;;;;;;;;5075077;28;20024;-59
2024/03/16 06:18:05;;;;;;;70.53;24.75;;;;;;;;;;5074913;28;20466;-59
2024/03/16 06:20:30;;;;;;;67.57;25.30;;;;;;;;;;5075530;28;20020;-59
2024/03/16 06:22:56;;;;;;;83.78;30.40;;;;;;;;;;5074926;28;20474;-59
2024/03/16 06:25:24;;;;;;;102.13;31.73;;;;;;;;;;5074783;28;20035;-59
2024/03/16 06:27:49;;;;;;;87.30;29.60;;;;;;;;;;5075070;28;20467;-59
2024/03/16 06:30:15;;;;;;;68.13;26.25;;;;;;;;;;5074731;28;20078;-59
2024/03/16 06:33:27;;;;;;;65.03;25.05;;;;;;;;;;5074997;28;20119;-59
2024/03/16 06:35:26;;;;;;;54.38;23.75;;;;;;;;;;5064143;28;20068;-59
2024/03/16 06:37:52;;;;;;;59.88;25.60;;;;;;;;;;5057299;28;20063;-59
2024/03/16 06:40:17;;;;;;;54.67;24.15;;;;;;;;;;5074573;28;20036;-59
2024/03/16 06:42:43;;;;;;;45.72;25.08;;;;;;;;;;5074819;28;20017;-59
2024/03/16 06:45:09;;;;;;;48.47;26.73;;;;;;;;;;5056556;28;20039;-59
2024/03/16 06:47:34;;;;;;;51.78;31.40;;;;;;;;;;5057157;28;20107;-59
2024/03/16 06:50:00;;;;;;;53.63;32.33;;;;;;;;;;5074659;28;20036;-59
2024/03/16 06:52:25;;;;;;;46.55;29.90;;;;;;;;;;5074313;28;20024;-59
2024/03/16 06:54:54;;;;;;;33.67;22.27;;;;;;;;;;5074583;28;20028;-59
2024/03/16 06:57:19;;;;;;;28.77;19.88;;;;;;;;;;5074750;28;20039;-59
2024/03/16 06:59:45;;;;;;;28.38;19.13;;;;;;;;;;5073981;28;20024;-59
2024/03/16 07:02:19;;;;;;;31.10;19.40;;;;;;;;;;5074421;28;20032;-59
2024/03/16 07:04:44;;;;;;;31.73;20.35;;;;;;;;;;5056581;28;20028;-59
2024/03/16 07:07:10;;;;;;;32.33;21.13;;;;;;;;;;5056137;28;20378;-59
2024/03/16 07:09:35;;;;;;;30.10;20.92;;;;;;;;;;5074088;28;20092;-59
2024/03/16 07:12:00;;;;;;;38.17;24.25;;;;;;;;;;5056089;28;20028;-59
2024/03/16 07:14:26;;;;;;;32.67;21.38;;;;;;;;;;5073989;28;20470;-59
2024/03/16 07:16:52;;;;;;;28.90;19.77;;;;;;;;;;5055999;28;20025;-59
2024/03/16 07:19:22;;;;;;;25.25;18.08;;;;;;;;;;5074138;28;20080;-59
2024/03/16 07:21:48;;;;;;;22.83;16.33;;;;;;;;;;5056085;28;20025;-59
2024/03/16 07:24:15;;;;;;;23.73;16.05;;;;;;;;;;5073844;28;20036;-59
2024/03/16 07:26:40;;;;;;;22.17;15.90;;;;;;;;;;5074147;28;20374;-59
2024/03/16 07:29:06;;;;;;;21.55;16.13;;;;;;;;;;5074078;28;20036;-59
2024/03/16 07:31:32;;;;;;;24.85;16.60;;;;;;;;;;5061810;22;20387;-64
2024/03/16 07:33:58;;;;;;;24.30;16.20;;;;;;;;;;5052430;28;20029;-64
2024/03/16 07:36:23;;;;;;;23.38;14.98;;;;;;;;;;5053642;28;20094;-64
2024/03/16 07:38:49;;;;;;;19.50;13.07;;;;;;;;;;5053882;28;20041;-64
2024/03/16 07:41:14;;;;;;;19.63;13.15;;;;;;;;;;5054219;28;20044;-64
2024/03/16 07:43:40;;;;;;;19.70;13.57;;;;;;;;;;5053896;28;20029;-64
2024/03/16 07:46:06;;;;;;;23.92;14.43;;;;;;;;;;5053649;28;20458;-64
2024/03/16 07:48:32;;;;;;;19.90;11.90;;;;;;;;;;5053502;28;20111;-65
2024/03/16 07:51:00;;;;;;;17.65;11.15;;;;;;;;;;5052685;28;20065;-64
2024/03/16 07:53:27;;;;;;;16.80;11.48;;;;;;;;;;5053580;28;20037;-64
2024/03/16 07:55:54;;;;;;;15.80;9.98;;;;;;;;;;5053520;28;20103;-64
2024/03/16 07:58:20;;;;;;;17.65;11.25;;;;;;;;;;5053686;28;20083;-64
2024/03/16 08:00:48;;;;;;;14.38;9.57;;;;;;;;;;5053467;28;20369;-64
2024/03/16 08:03:13;;;;;;;14.95;9.68;;;;;;;;;;5053976;28;20340;-64
2024/03/16 08:05:39;;;;;;;14.82;10.77;;;;;;;;;;5053425;28;20029;-64
2024/03/16 08:08:06;;;;;;;14.52;9.38;;;;;;;;;;5053375;28;20533;-64
2024/03/16 08:10:32;;;;;;;12.27;8.57;;;;;;;;;;5055372;28;20029;-64
2024/03/16 08:12:58;;;;;;;12.98;9.15;;;;;;;;;;5057430;28;20098;-64
2024/03/16 08:15:23;;;;;;;11.65;7.78;;;;;;;;;;5057694;28;20033;-64
2024/03/16 08:17:52;;;;;;;10.85;8.00;;;;;;;;;;5057567;28;20032;-64
2024/03/16 08:20:18;;;;;;;12.63;8.18;;;;;;;;;;5056117;28;20036;-64
2024/03/16 08:22:43;;;;;;;11.88;8.15;;;;;;;;;;5057837;28;20033;-64
2024/03/16 08:25:10;;;;;;;9.82;7.00;;;;;;;;;;5057480;28;20033;-64
2024/03/16 08:27:36;;;;;;;9.68;6.70;;;;;;;;;;5057702;28;20032;-64
2024/03/16 08:30:03;;;;;;;10.82;7.50;;;;;;;;;;5057098;28;20041;-64
2024/03/16 08:32:29;;;;;;;10.65;8.35;;;;;;;;;;5057031;28;20407;-64
2024/03/16 08:34:54;;;;;;;9.82;7.60;;;;;;;;;;5056380;28;20033;-64
2024/03/16 08:37:20;;;;;;;9.45;6.30;;;;;;;;;;5057158;28;20087;-64
2024/03/16 08:39:45;;;;;;;10.48;7.22;;;;;;;;;;5056922;28;20060;-65
2024/03/16 08:42:12;;;;;;;7.80;5.60;;;;;;;;;;5057119;28;20028;-64
2024/03/16 08:44:38;;;;;;;8.98;7.00;;;;;;;;;;5056837;28;20564;-64
2024/03/16 08:47:05;;;;;;;11.35;7.15;;;;;;;;;;5056772;28;20025;-64
2024/03/16 08:49:31;;;;;;;7.07;6.18;;;;;;;;;;5056974;28;20025;-64
2024/03/16 08:51:59;;;;;;;7.18;5.47;;;;;;;;;;5056710;28;20102;-64
2024/03/16 08:54:24;;;;;;;7.72;5.18;;;;;;;;;;5056667;28;20119;-64
2024/03/16 08:56:51;;;;;;;10.77;5.68;;;;;;;;;;5056899;28;20060;-64
2024/03/16 08:59:17;;;;;;;9.23;5.90;;;;;;;;;;5056794;28;20052;-65
2024/03/16 09:01:43;;;;;;;6.70;4.35;;;;;;;;;;5056871;28;20025;-64
2024/03/16 09:04:12;;;;;;;8.80;5.30;;;;;;;;;;5056747;28;20142;-64
2024/03/16 09:06:40;;;;;;;6.80;5.35;;;;;;;;;;5055543;28;20112;-64
2024/03/16 09:09:11;;;;;;;8.18;5.80;;;;;;;;;;5055240;28;20048;-64
2024/03/16 09:11:38;;;;;;;5.78;4.57;;;;;;;;;;5056915;28;20028;-64
2024/03/16 09:14:05;;;;;;;5.65;4.78;;;;;;;;;;5056573;28;20032;-64
2024/03/16 09:16:40;;;;;;;5.22;4.30;;;;;;;;;;5054989;28;20036;-64
2024/03/16 09:19:09;;;;;;;10.63;5.68;;;;;;;;;;5056427;28;20036;-64
2024/03/16 09:21:34;;;;;;;6.55;5.25;;;;;;;;;;5055849;28;20017;-64
2024/03/16 09:23:59;;;;;;;5.53;5.03;;;;;;;;;;5056101;28;20523;-64
2024/03/16 09:26:25;;;;;;;6.18;4.70;;;;;;;;;;5056328;28;20033;-65
2024/03/16 09:28:51;;;;;;;7.85;5.45;;;;;;;;;;5056306;28;20200;-64
2024/03/16 09:31:16;;;;;;;7.53;5.68;;;;;;;;;;5054484;28;20084;-64
2024/03/16 09:33:42;;;;;;;6.72;5.13;;;;;;;;;;5055895;28;20079;-64
2024/03/16 09:36:07;;;;;;;5.82;5.22;;;;;;;;;;5056135;28;20538;-64
2024/03/16 09:38:33;;;;;;;6.45;5.38;;;;;;;;;;5088380;22;20027;-64
2024/03/16 09:41:38;;;;;;;6.38;5.60;;;;;;;;;;5073333;28;20040;-64
2024/03/16 09:44:04;;;;;;;6.35;4.82;;;;;;;;;;5057770;28;20111;-64
2024/03/16 09:46:31;;;;;;;4.65;3.70;;;;;;;;;;5076013;28;20128;-64
2024/03/16 09:48:57;;;;;;;4.60;4.20;;;;;;;;;;5057819;28;20064;-64
2024/03/16 09:51:22;;;;;;;5.40;4.90;;;;;;;;;;5041847;28;20070;-64
2024/03/16 09:53:48;;;;;;;6.88;5.45;;;;;;;;;;5057974;28;20033;-64
2024/03/16 09:56:16;;;;;;;7.95;5.00;;;;;;;;;;5075484;28;20033;-64
2024/03/16 09:58:41;;;;;;;7.60;5.28;;;;;;;;;;5075676;28;20436;-64
2024/03/16 10:01:08;;;;;;;6.85;5.35;;;;;;;;;;5057580;28;20024;-64
2024/03/16 10:03:33;;;;;;;6.82;5.28;;;;;;;;;;5075572;28;20029;-64
2024/03/16 10:06:10;;;;;;;5.57;4.57;;;;;;;;;;5075604;28;20501;-64
2024/03/16 10:08:36;;;;;;;5.65;4.45;;;;;;;;;;5057367;28;20528;-64
2024/03/16 10:11:12;;;;;;;4.20;3.53;;;;;;;;;;5075196;28;20071;-64
2024/03/16 10:13:38;;;;;;;5.45;4.20;;;;;;;;;;5057281;28;20036;-64
2024/03/16 10:16:06;;;;;;;5.60;4.97;;;;;;;;;;5057817;28;20032;-64
2024/03/16 10:18:34;;;;;;;7.25;5.63;;;;;;;;;;5075292;28;20024;-64
2024/03/16 10:20:59;;;;;;;8.48;6.35;;;;;;;;;;5075020;28;20042;-64
2024/03/16 10:23:26;;;;;;;5.38;4.75;;;;;;;;;;5075464;28;20021;-64
2024/03/16 10:25:55;;;;;;;6.03;5.13;;;;;;;;;;5057363;28;20068;-64
2024/03/16 10:28:20;;;;;;;5.65;5.13;;;;;;;;;;5074865;28;20097;-64
2024/03/16 10:30:46;;;;;;;5.00;4.47;;;;;;;;;;5075038;28;20467;-64
2024/03/16 10:33:11;;;;;;;7.88;4.72;;;;;;;;;;5075024;28;20119;-64
2024/03/16 10:35:39;;;;;;;5.82;4.78;;;;;;;;;;5056787;28;20032;-64
2024/03/16 10:38:13;;;;;;;6.20;4.78;;;;;;;;;;5056665;28;20032;-64
2024/03/16 10:40:39;;;;;;;4.93;4.30;;;;;;;;;;5074517;28;20048;-64
2024/03/16 10:43:11;;;;;;;5.78;4.50;;;;;;;;;;5074543;28;20028;-64
2024/03/16 10:45:52;;;;;;;7.60;5.80;;;;;;;;;;5074771;28;20033;-64
2024/03/16 10:48:20;;;;;;;5.18;4.60;;;;;;;;;;5057207;28;20031;-64
2024/03/16 10:50:47;;;;;;;6.82;4.95;;;;;;;;;;5074700;28;20039;-64
2024/03/16 10:53:16;;;;;;;5.93;4.38;;;;;;;;;;5056370;28;20037;-64
2024/03/16 10:55:42;;;;;;;5.43;4.95;;;;;;;;;;5074647;28;20029;-64
2024/03/16 10:58:19;;;;;;;6.47;4.50;;;;;;;;;;5074212;28;20032;-64
2024/03/16 11:00:45;;;;;;;6.00;5.40;;;;;;;;;;5074501;28;20028;-64
2024/03/16 11:03:14;;;;;;;5.15;3.42;;;;;;;;;;5083308;22;20056;-59
2024/03/16 11:05:45;;;;;;;6.43;4.93;;;;;;;;;;5056653;28;20052;-59
2024/03/16 11:08:13;;;;;;;;;;;;;;;;;;5074524;28;20029;-59
2024/03/16 11:10:42;;;;;;;4.25;3.80;;;;;;;;;;5074077;28;19912;-59
2024/03/16 11:13:15;;;;;;;5.75;4.90;;;;;;;;;;5074323;28;20028;-59
2024/03/16 11:15:41;;;;;;;5.22;4.32;;;;;;;;;;5074295;28;20036;-59
2024/03/16 11:18:19;;;;;;;7.80;5.25;;;;;;;;;;5074154;28;20028;-59
2024/03/16 11:20:48;;;;;;;5.03;4.53;;;;;;;;;;5074477;28;20025;-59
2024/03/16 11:23:21;;;;;;;5.18;4.53;;;;;;;;;;5074191;28;20032;-59
2024/03/16 11:25:48;;;;;;;2.33;2.13;;;;;;;;;;5074178;28;20033;-59
2024/03/16 11:28:14;;;;;;;7.60;5.35;;;;;;;;;;5074105;28;20032;-59
2024/03/16 11:30:40;;;;;;;3.88;3.42;;;;;;;;;;5056398;28;20371;-59
2024/03/16 11:33:18;;;;;;;4.95;4.30;;;;;;;;;;5056062;28;20040;-59
2024/03/16 11:35:44;;;;;;;4.65;4.22;;;;;;;;;;5074064;28;20033;-59
2024/03/16 11:38:16;;;;;;;4.68;4.07;;;;;;;;;;5073919;28;20029;-59
2024/03/16 11:40:49;;;;;;;5.65;4.72;;;;;;;;;;5055729;28;20036;-59
2024/03/16 11:43:14;;;;;;;3.90;3.40;;;;;;;;;;5073607;28;20024;-59
2024/03/16 11:48:14;;;;;;;4.72;4.20;;;;;;;;;;5056884;22;20060;-64
2024/03/16 11:50:43;;;;;;;4.85;4.00;;;;;;;;;;5073874;28;20028;-64
2024/03/16 11:53:09;;;;;;;7.88;4.50;;;;;;;;;;5073835;28;20107;-64
2024/03/16 11:55:36;;;;;;;4.70;3.45;;;;;;;;;;5084403;22;20052;-59
2024/03/16 11:58:09;;;;;;;4.63;3.50;;;;;;;;;;5089159;22;20479;-63
2024/03/16 12:00:34;;;;;;;5.60;3.42;;;;;;;;;;5060133;22;20056;-59
2024/03/16 12:03:05;;;;;;;4.03;3.20;;;;;;;;;;5094728;22;20059;-59
2024/03/16 12:05:31;;;;;;;;;;;;;;;;;;5090048;22;20060;-64
2024/03/16 12:07:58;;;;;;;4.68;3.53;;;;;;;;;;5085200;22;20009;-64
2024/03/16 12:10:24;;;;;;;3.63;3.33;;;;;;;;;;5073675;28;20020;-64
2024/03/16 12:12:52;;;;;;;3.25;3.00;;;;;;;;;;5073647;28;20056;-64
2024/03/16 12:15:19;;;;;;;3.35;2.90;;;;;;;;;;5073624;28;20031;-64
2024/03/16 12:17:46;;;;;;;5.05;3.25;;;;;;;;;;5073503;28;20123;-64
2024/03/16 12:20:11;;;;;;;3.20;2.92;;;;;;;;;;5073586;28;20443;-64
2024/03/16 12:22:50;;;;;;;4.50;3.50;;;;;;;;;;5073248;28;20107;-64
2024/03/16 12:25:16;;;;;;;3.45;3.15;;;;;;;;;;5073493;28;20097;-64
2024/03/16 12:27:42;;;;;;;3.80;3.50;;;;;;;;;;5073512;28;20032;-64
2024/03/16 12:30:12;;;;;;;3.58;3.28;;;;;;;;;;5073222;28;20020;-64
2024/03/16 12:32:38;;;;;;;3.73;3.40;;;;;;;;;;5073499;28;20032;-64
2024/03/16 12:35:04;;;;;;;4.35;3.17;;;;;;;;;;5073198;28;20032;-64
2024/03/16 12:37:30;;;;;;;3.88;3.55;;;;;;;;;;5073333;28;20056;-64
2024/03/16 12:39:57;;;;;;;3.30;2.85;;;;;;;;;;5073364;28;20388;-64
2024/03/16 12:42:23;;;;;;;2.83;2.63;;;;;;;;;;5073117;28;20386;-64
2024/03/16 12:44:54;;;;;;;4.82;3.53;;;;;;;;;;5073328;28;20036;-64
2024/03/16 12:47:19;;;;;;;3.58;3.28;;;;;;;;;;5073340;28;20407;-64
2024/03/16 12:49:45;;;;;;;3.13;2.92;;;;;;;;;;5073025;28;20056;-64
2024/03/16 12:52:11;;;;;;;4.70;3.38;;;;;;;;;;5055346;28;20063;-64
2024/03/16 12:54:36;;;;;;;4.38;3.03;;;;;;;;;;5055463;28;20060;-64
2024/03/16 12:57:02;;;;;;;3.53;3.17;;;;;;;;;;5073725;28;20020;-64
2024/03/16 12:59:27;;;;;;;5.22;2.90;;;;;;;;;;5058696;28;20382;-64
2024/03/16 13:01:53;;;;;;;2.85;2.65;;;;;;;;;;5076812;28;20071;-64
2024/03/16 13:04:18;;;;;;;14.52;7.32;;;;;;;;;;5076356;28;20556;-64
2024/03/16 13:06:44;;;;;;;4.75;3.03;;;;;;;;;;5076096;28;20035;-64
2024/03/16 13:09:13;;;;;;;4.63;2.67;;;;;;;;;;5076434;28;20391;-64
2024/03/16 13:11:42;;;;;;;3.20;2.92;;;;;;;;;;5076618;28;20024;-65
2024/03/16 13:14:08;;;;;;;2.63;2.42;;;;;;;;;;5076575;28;20062;-65
2024/03/16 13:16:33;;;;;;;3.42;3.10;;;;;;;;;;5076601;28;20093;-64
2024/03/16 13:18:59;;;;;;;4.25;3.03;;;;;;;;;;5058592;28;20563;-64
2024/03/16 13:21:24;;;;;;;2.78;2.58;;;;;;;;;;5076228;28;20020;-64
2024/03/16 13:23:49;;;;;;;5.82;3.00;;;;;;;;;;5058155;28;20407;-64
2024/03/16 13:26:15;;;;;;;4.72;2.85;;;;;;;;;;5076046;28;20043;-64
2024/03/16 13:28:41;;;;;;;4.20;2.95;;;;;;;;;;5058485;28;20033;-64
2024/03/16 13:31:09;;;;;;;2.70;2.50;;;;;;;;;;5076273;28;20441;-64
2024/03/16 13:33:34;;;;;;;4.05;2.50;;;;;;;;;;5076250;28;20485;-64
2024/03/16 13:36:00;;;;;;;2.42;2.22;;;;;;;;;;5075903;28;20028;-64
2024/03/16 13:38:25;;;;;;;2.35;2.15;;;;;;;;;;5076082;28;20027;-64
2024/03/16 13:40:51;;;;;;;3.05;2.50;;;;;;;;;;5057816;28;20032;-64
2024/03/16 13:43:17;;;;;;;5.47;2.80;;;;;;;;;;5075760;28;20017;-64
2024/03/16 13:45:46;;;;;;;3.97;2.33;;;;;;;;;;5057816;28;20528;-64
2024/03/16 13:48:12;;;;;;;3.03;2.42;;;;;;;;;;5075723;28;20039;-64
2024/03/16 13:50:43;;;;;;;3.30;3.00;;;;;;;;;;5057810;28;20017;-64
2024/03/16 13:53:10;;;;;;;2.45;2.25;;;;;;;;;;5075862;28;20115;-64
2024/03/16 13:55:35;;;;;;;2.45;2.17;;;;;;;;;;5061956;22;20083;-59
2024/03/16 13:58:00;;;;;;;3.53;2.25;;;;;;;;;;5055684;28;20072;-59
2024/03/16 14:00:26;;;;;;;3.10;2.15;;;;;;;;;;5054252;28;20028;-59
2024/03/16 14:02:56;;;;;;;4.07;2.28;;;;;;;;;;5055410;28;20021;-59
2024/03/16 14:05:21;;;;;;;2.28;1.40;;;;;;;;;;5055932;28;20349;-59
2024/03/16 14:07:50;;;;;;;2.45;1.92;;;;;;;;;;5055324;28;20032;-59
2024/03/16 14:10:16;;;;;;;1.50;1.40;;;;;;;;;;5054015;28;20036;-59
2024/03/16 14:12:44;;;;;;;1.85;1.73;;;;;;;;;;5055522;28;20107;-59
2024/03/16 14:15:09;;;;;;;4.15;1.90;;;;;;;;;;5055466;28;20037;-59
2024/03/16 14:17:35;;;;;;;1.85;1.48;;;;;;;;;;5053833;28;20032;-59
2024/03/16 14:20:00;;;;;;;1.63;1.52;;;;;;;;;;5055366;28;20051;-59
2024/03/16 14:22:25;;;;;;;1.90;1.80;;;;;;;;;;5053786;28;20021;-59
2024/03/16 14:24:51;;;;;;;1.52;1.42;;;;;;;;;;5054971;28;20195;-59
2024/03/16 14:27:17;;;;;;;1.90;1.70;;;;;;;;;;5055261;28;20029;-59
2024/03/16 14:29:42;;;;;;;2.95;1.77;;;;;;;;;;5055193;28;20086;-59